Time;durP1;ratioP1;P1;durP2;ratioP2;P2;SDS_P1;SDS_P2;PMS_P1;PMS_P2;Temp;Humidity;BMP_temperature;BMP_pressure;BME280_temperature;BME280_humidity;BME280_pressure;Samples;Min_cycle;Max_cycle;Signal;HPM_P1;HPM_P2
2024/04/14 00:00:17;;;;;;;12.07;5.45;;;;;;;;;;5381058;26;20454;-69
2024/04/14 00:02:42;;;;;;;15.75;6.07;;;;;;;;;;5382727;26;20008;-69
2024/04/14 00:05:08;;;;;;;26.05;6.22;;;;;;;;;;5382446;26;20458;-69
2024/04/14 00:07:33;;;;;;;14.18;6.00;;;;;;;;;;5382638;26;19996;-69
2024/04/14 00:09:58;;;;;;;17.17;6.88;;;;;;;;;;5382707;26;20010;-69
2024/04/14 00:12:23;;;;;;;13.68;4.88;;;;;;;;;;5379460;26;20000;-69
2024/04/14 00:14:49;;;;;;;13.98;4.55;;;;;;;;;;5382490;26;19996;-69
2024/04/14 00:17:14;;;;;;;15.52;5.03;;;;;;;;;;5382276;26;20412;-69
2024/04/14 00:19:39;;;;;;;17.63;5.65;;;;;;;;;;5382481;26;19988;-69
2024/04/14 00:22:05;;;;;;;15.98;5.00;;;;;;;;;;5382560;26;20025;-69
2024/04/14 00:24:30;;;;;;;12.25;4.68;;;;;;;;;;5381796;26;20453;-69
2024/04/14 00:26:55;;;;;;;14.43;6.05;;;;;;;;;;5379060;26;20001;-69
2024/04/14 00:29:20;;;;;;;21.60;4.32;;;;;;;;;;5405028;21;20009;-70
2024/04/14 00:31:46;;;;;;;16.88;5.70;;;;;;;;;;5353814;26;20012;-71
2024/04/14 00:34:11;;;;;;;17.52;5.10;;;;;;;;;;5346571;26;20001;-71
2024/04/14 00:36:38;;;;;;;24.77;4.82;;;;;;;;;;5345129;26;19993;-71
2024/04/14 00:39:03;;;;;;;17.63;3.90;;;;;;;;;;5346276;26;20467;-71
2024/04/14 00:41:29;;;;;;;17.60;5.22;;;;;;;;;;5346591;26;19997;-71
2024/04/14 00:43:54;;;;;;;13.95;3.22;;;;;;;;;;5345430;26;20024;-71
2024/04/14 00:46:19;;;;;;;12.65;3.53;;;;;;;;;;5346569;26;20025;-71
2024/04/14 00:48:44;;;;;;;13.88;3.65;;;;;;;;;;5346160;26;20467;-71
2024/04/14 00:51:11;;;;;;;20.20;3.60;;;;;;;;;;5316955;26;20005;-70
2024/04/14 00:53:36;;;;;;;16.58;3.65;;;;;;;;;;5349374;26;19997;-69
2024/04/14 00:56:02;;;;;;;16.45;3.05;;;;;;;;;;5348102;26;19993;-68
2024/04/14 00:58:27;;;;;;;14.35;3.55;;;;;;;;;;5348189;26;20015;-68
2024/04/14 01:00:53;;;;;;;9.10;2.72;;;;;;;;;;5349509;26;19993;-68
2024/04/14 01:03:18;;;;;;;8.90;3.10;;;;;;;;;;5347265;26;20008;-68
2024/04/14 01:05:43;;;;;;;13.70;2.90;;;;;;;;;;5348982;26;19997;-68
2024/04/14 01:08:09;;;;;;;9.40;2.65;;;;;;;;;;5347256;26;19993;-68
2024/04/14 01:10:35;;;;;;;19.75;3.25;;;;;;;;;;5347346;26;20071;-68
2024/04/14 01:13:00;;;;;;;16.00;3.42;;;;;;;;;;5347902;26;20005;-68
2024/04/14 01:15:25;;;;;;;19.02;3.83;;;;;;;;;;5347972;26;20075;-68
2024/04/14 01:17:51;;;;;;;12.73;2.90;;;;;;;;;;5349614;26;19997;-68
2024/04/14 01:20:16;;;;;;;14.15;2.72;;;;;;;;;;5349524;26;20012;-67
2024/04/14 01:22:41;;;;;;;10.13;2.65;;;;;;;;;;5347230;26;20025;-68
2024/04/14 01:25:07;;;;;;;11.68;2.83;;;;;;;;;;5348963;26;20041;-68
2024/04/14 01:27:33;;;;;;;8.27;2.53;;;;;;;;;;5376832;26;20004;-68
2024/04/14 01:29:58;;;;;;;8.25;2.38;;;;;;;;;;5349195;26;19997;-68
2024/04/14 01:32:24;;;;;;;11.60;2.67;;;;;;;;;;5347002;26;20016;-68
2024/04/14 01:34:49;;;;;;;9.30;3.15;;;;;;;;;;5349507;26;19997;-68
2024/04/14 01:37:14;;;;;;;16.92;3.03;;;;;;;;;;5349177;26;20034;-68
2024/04/14 01:39:39;;;;;;;16.25;2.28;;;;;;;;;;5348039;26;20029;-68
2024/04/14 01:42:05;;;;;;;9.65;2.35;;;;;;;;;;5348620;26;20467;-68
2024/04/14 01:44:30;;;;;;;13.70;2.05;;;;;;;;;;5347003;26;20092;-68
2024/04/14 01:46:55;;;;;;;17.27;2.40;;;;;;;;;;5349313;26;20487;-68
2024/04/14 01:49:21;;;;;;;7.30;2.55;;;;;;;;;;5348889;26;20004;-68
2024/04/14 01:51:46;;;;;;;10.68;3.30;;;;;;;;;;5347111;26;20364;-68
2024/04/14 01:54:12;;;;;;;6.57;2.05;;;;;;;;;;5346890;26;20057;-68
2024/04/14 01:56:38;;;;;;;8.23;2.63;;;;;;;;;;5348778;26;20355;-68
2024/04/14 01:59:03;;;;;;;20.40;3.17;;;;;;;;;;5348586;26;19992;-67
2024/04/14 02:01:29;;;;;;;11.18;2.45;;;;;;;;;;5348196;26;20450;-68
2024/04/14 02:03:54;;;;;;;9.05;2.28;;;;;;;;;;5349018;26;20020;-68
2024/04/14 02:06:19;;;;;;;11.93;3.08;;;;;;;;;;5348394;26;20080;-68
2024/04/14 02:08:45;;;;;;;8.57;2.28;;;;;;;;;;5348221;26;20025;-67
2024/04/14 02:11:10;;;;;;;7.72;2.15;;;;;;;;;;5346866;26;19993;-68
2024/04/14 02:13:35;;;;;;;4.63;1.52;;;;;;;;;;5348578;26;20375;-68
2024/04/14 02:16:01;;;;;;;10.40;2.92;;;;;;;;;;5347801;26;20026;-67
2024/04/14 02:18:26;;;;;;;9.18;1.90;;;;;;;;;;5348814;26;19993;-68
2024/04/14 02:20:51;;;;;;;5.13;2.03;;;;;;;;;;5347751;26;20047;-67
2024/04/14 02:23:19;;;;;;;7.38;2.00;;;;;;;;;;5346556;26;20004;-68
2024/04/14 02:25:53;;;;;;;11.50;2.60;;;;;;;;;;5345760;26;19997;-67
2024/04/14 02:28:18;;;;;;;11.75;2.33;;;;;;;;;;5312003;27;20005;-68
2024/04/14 02:30:44;;;;;;;13.48;2.88;;;;;;;;;;5319956;26;19997;-68
2024/04/14 02:33:09;;;;;;;12.07;2.95;;;;;;;;;;5341430;26;20412;-68
2024/04/14 02:35:34;;;;;;;12.02;2.25;;;;;;;;;;5312872;27;20503;-68
2024/04/14 02:38:00;;;;;;;8.68;2.30;;;;;;;;;;5326605;26;20001;-68
2024/04/14 02:40:25;;;;;;;9.93;2.33;;;;;;;;;;5348422;26;20429;-67
2024/04/14 02:42:50;;;;;;;15.57;3.22;;;;;;;;;;5347480;26;19996;-68
2024/04/14 02:45:16;;;;;;;11.95;2.95;;;;;;;;;;5348310;26;20015;-67
2024/04/14 02:47:41;;;;;;;5.63;1.70;;;;;;;;;;5347624;26;19997;-68
2024/04/14 02:50:06;;;;;;;8.30;2.33;;;;;;;;;;5347504;26;20029;-68
2024/04/14 02:52:32;;;;;;;5.97;1.85;;;;;;;;;;5348250;26;20451;-67
2024/04/14 02:54:57;;;;;;;15.10;2.92;;;;;;;;;;5347434;26;20073;-67
2024/04/14 02:57:23;;;;;;;21.85;2.97;;;;;;;;;;5346676;26;20490;-68
2024/04/14 02:59:48;;;;;;;9.45;2.30;;;;;;;;;;5345711;26;20040;-67
2024/04/14 03:02:13;;;;;;;11.80;2.10;;;;;;;;;;5347297;26;20351;-67
2024/04/14 03:04:39;;;;;;;11.88;2.28;;;;;;;;;;5348144;26;20066;-68
2024/04/14 03:07:04;;;;;;;15.38;3.00;;;;;;;;;;5347471;26;20106;-67
2024/04/14 03:09:29;;;;;;;5.70;2.25;;;;;;;;;;5347764;26;20017;-68
2024/04/14 03:11:55;;;;;;;11.57;3.30;;;;;;;;;;5345638;26;20032;-68
2024/04/14 03:14:20;;;;;;;12.77;2.58;;;;;;;;;;5345910;26;20025;-68
2024/04/14 03:16:45;;;;;;;9.43;3.55;;;;;;;;;;5347722;26;19996;-68
2024/04/14 03:19:11;;;;;;;14.50;2.60;;;;;;;;;;5347284;26;20004;-67
2024/04/14 03:21:36;;;;;;;10.25;2.45;;;;;;;;;;5347521;26;19996;-68
2024/04/14 03:24:02;;;;;;;17.88;2.72;;;;;;;;;;5347849;26;20076;-68
2024/04/14 03:26:27;;;;;;;8.30;2.20;;;;;;;;;;5346676;26;20008;-68
2024/04/14 03:28:52;;;;;;;14.23;2.03;;;;;;;;;;5347052;26;20001;-67
2024/04/14 03:31:19;;;;;;;11.60;2.40;;;;;;;;;;5347433;26;19993;-67
2024/04/14 03:33:44;;;;;;;7.05;2.92;;;;;;;;;;5345307;26;19989;-67
2024/04/14 03:36:09;;;;;;;9.70;2.42;;;;;;;;;;5347442;26;20007;-68
2024/04/14 03:38:35;;;;;;;11.57;2.42;;;;;;;;;;5346018;26;20479;-67
2024/04/14 03:41:01;;;;;;;15.30;2.42;;;;;;;;;;5346733;26;20009;-68
2024/04/14 03:43:26;;;;;;;17.40;4.03;;;;;;;;;;5345798;26;20494;-68
2024/04/14 03:45:51;;;;;;;11.82;2.85;;;;;;;;;;5345188;26;20005;-68
2024/04/14 03:48:17;;;;;;;12.38;2.65;;;;;;;;;;5346651;26;20001;-67
2024/04/14 03:50:44;;;;;;;10.77;2.45;;;;;;;;;;5346138;26;20004;-67
2024/04/14 03:53:09;;;;;;;16.75;3.63;;;;;;;;;;5337392;26;19996;-67
2024/04/14 03:55:35;;;;;;;13.25;2.60;;;;;;;;;;5346630;26;20004;-68
2024/04/14 03:58:00;;;;;;;31.85;3.67;;;;;;;;;;5344654;26;20008;-68
2024/04/14 04:00:25;;;;;;;22.00;2.72;;;;;;;;;;5346786;26;20033;-67
2024/04/14 04:02:51;;;;;;;12.93;2.20;;;;;;;;;;5346890;26;20070;-68
2024/04/14 04:05:16;;;;;;;9.40;1.90;;;;;;;;;;5347307;26;20011;-68
2024/04/14 04:07:42;;;;;;;11.55;2.72;;;;;;;;;;5346648;26;19993;-68
2024/04/14 04:10:07;;;;;;;9.52;2.22;;;;;;;;;;5347277;26;20028;-67
2024/04/14 04:12:33;;;;;;;17.25;3.00;;;;;;;;;;5347258;26;20008;-68
2024/04/14 04:14:58;;;;;;;16.25;2.70;;;;;;;;;;5347455;26;19997;-68
2024/04/14 04:17:24;;;;;;;11.02;3.17;;;;;;;;;;5347115;26;19993;-68
2024/04/14 04:19:49;;;;;;;10.75;3.08;;;;;;;;;;5347100;26;20350;-67
2024/04/14 04:22:14;;;;;;;12.85;3.03;;;;;;;;;;5346469;26;20066;-68
2024/04/14 04:24:39;;;;;;;13.10;2.45;;;;;;;;;;5345977;26;20025;-68
2024/04/14 04:27:05;;;;;;;6.05;2.10;;;;;;;;;;5344695;26;20033;-68
2024/04/14 04:29:31;;;;;;;10.35;2.17;;;;;;;;;;5345815;26;20030;-68
2024/04/14 04:31:56;;;;;;;15.68;3.42;;;;;;;;;;5346706;26;19993;-68
2024/04/14 04:34:22;;;;;;;9.77;2.50;;;;;;;;;;5346429;26;19999;-68
2024/04/14 04:36:48;;;;;;;9.63;3.03;;;;;;;;;;5344654;26;20004;-68
2024/04/14 04:39:14;;;;;;;7.82;2.85;;;;;;;;;;5346181;26;20096;-68
2024/04/14 04:41:39;;;;;;;11.80;2.97;;;;;;;;;;5345719;26;20001;-68
2024/04/14 04:44:05;;;;;;;11.05;2.03;;;;;;;;;;5344601;26;19989;-68
2024/04/14 04:46:30;;;;;;;8.98;2.47;;;;;;;;;;5346267;26;19997;-68
2024/04/14 04:48:56;;;;;;;18.70;2.78;;;;;;;;;;5343688;26;20066;-68
2024/04/14 04:51:22;;;;;;;9.20;2.95;;;;;;;;;;5346114;26;20004;-68
2024/04/14 04:53:48;;;;;;;8.65;3.05;;;;;;;;;;5344409;26;19993;-68
2024/04/14 04:56:13;;;;;;;12.85;2.72;;;;;;;;;;5345911;26;19999;-68
2024/04/14 04:58:38;;;;;;;10.27;3.08;;;;;;;;;;5345947;26;20004;-68
2024/04/14 05:01:04;;;;;;;16.88;2.55;;;;;;;;;;5346146;26;20036;-68
2024/04/14 05:03:29;;;;;;;11.65;2.33;;;;;;;;;;5345722;26;20012;-68
2024/04/14 05:05:58;;;;;;;12.45;2.63;;;;;;;;;;5345841;26;19993;-68
2024/04/14 05:08:23;;;;;;;13.63;3.80;;;;;;;;;;5344175;26;20314;-68
2024/04/14 05:10:53;;;;;;;9.07;2.17;;;;;;;;;;5345705;26;19997;-68
2024/04/14 05:13:19;;;;;;;15.00;2.60;;;;;;;;;;5343382;26;19997;-68
2024/04/14 05:15:44;;;;;;;6.47;1.98;;;;;;;;;;5343870;26;20001;-68
2024/04/14 05:18:10;;;;;;;14.50;3.33;;;;;;;;;;5345604;26;20029;-68
2024/04/14 05:20:35;;;;;;;18.90;3.28;;;;;;;;;;5345552;26;19997;-68
2024/04/14 05:23:00;;;;;;;13.38;2.92;;;;;;;;;;5345369;26;20004;-66
2024/04/14 05:25:26;;;;;;;12.52;2.58;;;;;;;;;;5344993;26;20008;-68
2024/04/14 05:27:51;;;;;;;19.67;4.00;;;;;;;;;;5345302;26;20128;-68
2024/04/14 05:30:17;;;;;;;9.55;3.78;;;;;;;;;;5345549;26;20350;-68
2024/04/14 05:32:42;;;;;;;15.45;3.53;;;;;;;;;;5345635;26;20037;-68
2024/04/14 05:35:07;;;;;;;14.32;2.60;;;;;;;;;;5344993;26;20447;-68
2024/04/14 05:37:32;;;;;;;9.68;2.65;;;;;;;;;;5347131;26;20001;-68
2024/04/14 05:39:58;;;;;;;10.18;3.30;;;;;;;;;;5348807;26;20000;-68
2024/04/14 05:42:23;;;;;;;16.77;2.55;;;;;;;;;;5348844;26;20012;-68
2024/04/14 05:44:49;;;;;;;13.45;2.72;;;;;;;;;;5348038;26;19997;-68
2024/04/14 05:47:15;;;;;;;14.45;3.08;;;;;;;;;;5348812;26;20443;-68
2024/04/14 05:49:40;;;;;;;12.60;2.42;;;;;;;;;;5348572;26;20071;-68
2024/04/14 05:52:05;;;;;;;13.40;2.28;;;;;;;;;;5348257;26;20438;-68
2024/04/14 05:54:31;;;;;;;14.35;4.10;;;;;;;;;;5348683;26;20009;-68
2024/04/14 05:56:56;;;;;;;11.38;2.63;;;;;;;;;;5348609;26;20009;-68
2024/04/14 05:59:21;;;;;;;16.17;3.38;;;;;;;;;;5347895;26;20005;-68
2024/04/14 06:01:50;;;;;;;15.45;2.45;;;;;;;;;;5348678;26;20033;-68
2024/04/14 06:04:15;;;;;;;13.25;3.03;;;;;;;;;;5348526;26;20001;-68
2024/04/14 06:06:41;;;;;;;16.77;2.70;;;;;;;;;;5348454;26;20468;-68
2024/04/14 06:09:06;;;;;;;19.00;2.38;;;;;;;;;;5348590;26;20012;-68
2024/04/14 06:11:31;;;;;;;18.35;3.28;;;;;;;;;;5348316;26;20000;-68
2024/04/14 06:13:57;;;;;;;20.80;3.72;;;;;;;;;;5348688;26;20393;-68
2024/04/14 06:16:22;;;;;;;7.43;2.47;;;;;;;;;;5348722;26;20000;-68
2024/04/14 06:18:48;;;;;;;17.80;3.30;;;;;;;;;;5348407;26;19997;-68
2024/04/14 06:21:13;;;;;;;13.45;3.47;;;;;;;;;;5345879;26;20001;-68
2024/04/14 06:23:39;;;;;;;13.48;2.72;;;;;;;;;;5348156;26;20008;-67
2024/04/14 06:26:04;;;;;;;25.30;2.83;;;;;;;;;;5348222;26;19997;-68
2024/04/14 06:28:31;;;;;;;13.20;3.85;;;;;;;;;;5381772;21;20008;-69
2024/04/14 06:30:56;;;;;;;11.82;3.28;;;;;;;;;;5384141;26;20024;-69
2024/04/14 06:33:21;;;;;;;13.10;2.22;;;;;;;;;;5384146;26;20404;-69
2024/04/14 06:35:47;;;;;;;17.08;3.58;;;;;;;;;;5381678;26;20003;-69
2024/04/14 06:38:12;;;;;;;19.50;2.47;;;;;;;;;;5384233;26;19996;-69
2024/04/14 06:40:38;;;;;;;16.23;3.55;;;;;;;;;;5384336;26;19997;-69
2024/04/14 06:43:04;;;;;;;17.92;3.63;;;;;;;;;;5384298;26;20345;-69
2024/04/14 06:45:30;;;;;;;9.65;3.35;;;;;;;;;;5382734;26;19992;-69
2024/04/14 06:47:55;;;;;;;14.32;3.67;;;;;;;;;;5383965;26;20011;-69
2024/04/14 06:50:21;;;;;;;19.23;2.55;;;;;;;;;;5382505;26;19992;-69
2024/04/14 06:52:46;;;;;;;11.52;2.80;;;;;;;;;;5384271;26;19996;-69
2024/04/14 06:55:12;;;;;;;12.10;2.38;;;;;;;;;;5384198;26;19996;-69
2024/04/14 06:57:38;;;;;;;10.10;2.35;;;;;;;;;;5384282;26;19996;-69
2024/04/14 07:00:03;;;;;;;9.52;2.75;;;;;;;;;;5376973;26;20011;-69
2024/04/14 07:02:29;;;;;;;13.48;3.17;;;;;;;;;;5379480;26;20014;-69
2024/04/14 07:04:54;;;;;;;10.23;2.33;;;;;;;;;;5362892;26;19996;-69
2024/04/14 07:07:19;;;;;;;10.38;2.53;;;;;;;;;;5359602;26;20083;-69
2024/04/14 07:09:44;;;;;;;9.93;3.42;;;;;;;;;;5377175;26;20348;-69
2024/04/14 07:12:10;;;;;;;9.75;2.13;;;;;;;;;;5362525;26;20008;-69
2024/04/14 07:14:35;;;;;;;14.10;2.95;;;;;;;;;;5381587;26;19992;-69
2024/04/14 07:17:01;;;;;;;15.52;2.88;;;;;;;;;;5382679;26;20062;-69
2024/04/14 07:19:26;;;;;;;13.20;2.50;;;;;;;;;;5381623;26;19996;-69
2024/04/14 07:21:51;;;;;;;11.55;3.00;;;;;;;;;;5383276;26;20003;-69
2024/04/14 07:24:16;;;;;;;11.48;2.53;;;;;;;;;;5383518;26;20069;-69
2024/04/14 07:26:42;;;;;;;10.25;2.38;;;;;;;;;;5383223;26;20020;-69
2024/04/14 07:29:07;;;;;;;20.25;3.90;;;;;;;;;;5378273;26;20000;-69
2024/04/14 07:31:32;;;;;;;11.95;2.40;;;;;;;;;;5351359;26;20016;-69
2024/04/14 07:34:02;;;;;;;16.08;3.28;;;;;;;;;;5381112;26;19992;-69
2024/04/14 07:36:28;;;;;;;5.68;1.90;;;;;;;;;;5366522;26;20461;-69
2024/04/14 07:38:53;;;;;;;11.45;3.47;;;;;;;;;;5352074;26;20319;-68
2024/04/14 07:41:19;;;;;;;11.43;3.22;;;;;;;;;;5380501;26;20019;-68
2024/04/14 07:43:48;;;;;;;7.93;2.20;;;;;;;;;;5372588;26;20015;-69
2024/04/14 07:46:13;;;;;;;9.90;2.47;;;;;;;;;;5346371;26;20048;-69
2024/04/14 07:48:39;;;;;;;13.55;2.67;;;;;;;;;;5361818;26;20030;-69
2024/04/14 07:51:04;;;;;;;16.45;2.90;;;;;;;;;;5349326;26;20007;-69
2024/04/14 07:53:30;;;;;;;9.73;2.40;;;;;;;;;;5348212;26;19998;-68
2024/04/14 07:55:55;;;;;;;9.45;2.97;;;;;;;;;;5347607;26;20001;-69
2024/04/14 07:58:21;;;;;;;14.70;2.85;;;;;;;;;;5317625;26;19997;-69
2024/04/14 08:00:46;;;;;;;13.52;2.53;;;;;;;;;;5350740;26;20324;-69
2024/04/14 08:03:12;;;;;;;11.68;2.45;;;;;;;;;;5347881;26;20028;-69
2024/04/14 08:05:37;;;;;;;9.45;3.08;;;;;;;;;;5345477;26;19997;-69
2024/04/14 08:08:03;;;;;;;12.00;2.50;;;;;;;;;;5345411;26;20009;-69
2024/04/14 08:10:28;;;;;;;16.42;2.80;;;;;;;;;;5347710;26;20454;-69
2024/04/14 08:12:53;;;;;;;10.40;2.03;;;;;;;;;;5347766;26;19997;-69
2024/04/14 08:15:19;;;;;;;10.60;2.22;;;;;;;;;;5347812;26;19997;-69
2024/04/14 08:17:44;;;;;;;14.57;2.83;;;;;;;;;;5347576;26;20400;-69
2024/04/14 08:20:11;;;;;;;12.30;3.55;;;;;;;;;;5346939;26;20099;-68
2024/04/14 08:22:36;;;;;;;5.80;2.00;;;;;;;;;;5347596;26;20012;-69
2024/04/14 08:25:01;;;;;;;5.80;1.77;;;;;;;;;;5347330;26;20075;-69
2024/04/14 08:27:26;;;;;;;9.35;2.30;;;;;;;;;;5346851;26;19997;-68
2024/04/14 08:29:52;;;;;;;12.07;2.75;;;;;;;;;;5347502;26;20001;-69
2024/04/14 08:32:17;;;;;;;10.73;2.13;;;;;;;;;;5371656;26;20004;-69
2024/04/14 08:34:42;;;;;;;11.77;2.72;;;;;;;;;;5380073;26;20455;-69
2024/04/14 08:37:08;;;;;;;14.05;2.47;;;;;;;;;;5371797;26;20033;-69
2024/04/14 08:39:33;;;;;;;7.38;2.45;;;;;;;;;;5346905;26;20435;-69
2024/04/14 08:41:59;;;;;;;8.75;2.38;;;;;;;;;;5345474;26;20004;-68
2024/04/14 08:44:24;;;;;;;9.60;2.50;;;;;;;;;;5345726;26;20001;-70
2024/04/14 08:46:50;;;;;;;12.50;2.63;;;;;;;;;;5361976;26;20007;-69
2024/04/14 08:49:16;;;;;;;11.13;2.30;;;;;;;;;;5380172;26;20002;-69
2024/04/14 08:51:41;;;;;;;9.13;2.30;;;;;;;;;;5377607;26;20004;-69
2024/04/14 08:54:07;;;;;;;9.73;1.98;;;;;;;;;;5381721;26;20065;-68
2024/04/14 08:56:32;;;;;;;6.75;1.73;;;;;;;;;;5382065;26;20003;-68
2024/04/14 08:59:04;;;;;;;10.18;2.28;;;;;;;;;;5382044;26;20011;-69
2024/04/14 09:01:30;;;;;;;5.15;2.03;;;;;;;;;;5369572;26;20454;-68
2024/04/14 09:03:55;;;;;;;12.75;2.35;;;;;;;;;;5356561;26;20008;-68
2024/04/14 09:06:21;;;;;;;14.07;2.60;;;;;;;;;;5346218;26;19997;-68
2024/04/14 09:08:47;;;;;;;8.88;2.60;;;;;;;;;;5378070;26;20001;-68
2024/04/14 09:11:12;;;;;;;11.80;2.42;;;;;;;;;;5379910;26;20011;-69
2024/04/14 09:13:37;;;;;;;14.68;2.80;;;;;;;;;;5385080;26;20470;-69
2024/04/14 09:16:04;;;;;;;10.77;2.95;;;;;;;;;;5385202;26;20095;-69
2024/04/14 09:18:29;;;;;;;17.92;2.45;;;;;;;;;;5382759;26;20000;-68
2024/04/14 09:20:54;;;;;;;14.45;3.20;;;;;;;;;;5377499;26;20028;-68
2024/04/14 09:23:20;;;;;;;13.82;2.20;;;;;;;;;;5380480;26;20027;-68
2024/04/14 09:25:45;;;;;;;11.95;2.72;;;;;;;;;;5384818;26;20074;-68
2024/04/14 09:28:11;;;;;;;12.88;2.53;;;;;;;;;;5379122;26;19996;-69
2024/04/14 09:30:37;;;;;;;14.43;3.20;;;;;;;;;;5379579;26;20016;-68
2024/04/14 09:33:03;;;;;;;12.30;2.38;;;;;;;;;;5382577;26;20012;-68
2024/04/14 09:35:29;;;;;;;15.88;3.50;;;;;;;;;;5374101;26;19997;-69
2024/04/14 09:37:54;;;;;;;13.60;2.03;;;;;;;;;;5349163;26;20007;-69
2024/04/14 09:40:22;;;;;;;6.63;2.30;;;;;;;;;;5348873;26;20045;-69
2024/04/14 09:42:50;;;;;;;8.13;1.85;;;;;;;;;;5349391;26;20008;-69
2024/04/14 09:45:16;;;;;;;13.50;2.58;;;;;;;;;;5347986;26;20528;-69
2024/04/14 09:47:43;;;;;;;12.10;2.80;;;;;;;;;;5377282;26;20025;-69
2024/04/14 09:50:08;;;;;;;7.07;2.40;;;;;;;;;;5348023;26;20004;-68
2024/04/14 09:52:33;;;;;;;11.40;2.90;;;;;;;;;;5364279;26;20000;-69
2024/04/14 09:55:02;;;;;;;8.98;2.22;;;;;;;;;;5349336;26;20070;-68
2024/04/14 09:57:27;;;;;;;10.02;2.80;;;;;;;;;;5347529;26;20012;-69
2024/04/14 09:59:52;;;;;;;8.95;1.77;;;;;;;;;;5349426;26;20459;-68
2024/04/14 10:02:26;;;;;;;12.52;2.60;;;;;;;;;;5370535;26;20007;-68
2024/04/14 10:04:53;;;;;;;12.50;2.42;;;;;;;;;;5348567;26;19997;-68
2024/04/14 10:07:18;;;;;;;9.20;2.70;;;;;;;;;;5358783;26;19997;-68
2024/04/14 10:09:49;;;;;;;9.73;2.03;;;;;;;;;;5382470;26;20316;-68
2024/04/14 10:12:18;;;;;;;5.00;1.77;;;;;;;;;;5379355;26;20011;-69
2024/04/14 10:14:50;;;;;;;13.55;2.92;;;;;;;;;;5382696;26;19997;-69
2024/04/14 10:17:18;;;;;;;12.40;2.15;;;;;;;;;;5347710;26;19997;-69
2024/04/14 10:19:57;;;;;;;9.43;3.65;;;;;;;;;;5349247;26;20001;-69
2024/04/14 10:22:30;;;;;;;8.07;1.90;;;;;;;;;;5382456;26;20011;-69
2024/04/14 10:24:55;;;;;;;9.57;2.47;;;;;;;;;;5383088;26;20007;-69
2024/04/14 10:27:23;;;;;;;9.07;2.40;;;;;;;;;;5383961;26;20001;-69
2024/04/14 10:29:56;;;;;;;16.45;2.85;;;;;;;;;;5382971;26;20314;-69
2024/04/14 10:32:21;;;;;;;11.88;2.67;;;;;;;;;;5383931;26;20028;-69
2024/04/14 10:34:47;;;;;;;17.95;4.68;;;;;;;;;;5384265;26;20011;-69
2024/04/14 10:37:23;;;;;;;15.93;3.95;;;;;;;;;;5376582;26;20005;-69
2024/04/14 10:39:50;;;;;;;6.93;3.70;;;;;;;;;;5347636;26;20012;-69
2024/04/14 10:42:15;;;;;;;12.55;3.25;;;;;;;;;;5347154;26;19997;-69
2024/04/14 10:44:44;;;;;;;12.05;2.67;;;;;;;;;;5349235;26;20008;-69
2024/04/14 10:47:17;;;;;;;12.27;3.45;;;;;;;;;;5349052;26;20008;-69
2024/04/14 10:49:44;;;;;;;12.25;2.70;;;;;;;;;;5347163;26;19997;-69
2024/04/14 10:52:10;;;;;;;13.57;2.45;;;;;;;;;;5350570;26;20511;-69
2024/04/14 10:54:35;;;;;;;11.88;2.58;;;;;;;;;;5381406;26;20481;-69
2024/04/14 10:57:01;;;;;;;10.98;2.75;;;;;;;;;;5382972;26;20003;-69
2024/04/14 10:59:26;;;;;;;12.55;2.10;;;;;;;;;;5383635;26;20088;-69
2024/04/14 11:01:52;;;;;;;8.73;2.92;;;;;;;;;;5366443;26;20001;-69
2024/04/14 11:04:17;;;;;;;13.40;2.75;;;;;;;;;;5346825;26;20009;-69
2024/04/14 11:06:44;;;;;;;10.55;2.35;;;;;;;;;;5353875;26;19992;-69
2024/04/14 11:09:10;;;;;;;9.02;2.38;;;;;;;;;;5376280;26;20025;-69
2024/04/14 11:11:36;;;;;;;7.82;2.53;;;;;;;;;;5375960;26;20028;-69
2024/04/14 11:14:02;;;;;;;12.95;2.60;;;;;;;;;;5346846;26;19997;-69
2024/04/14 11:16:27;;;;;;;9.48;2.05;;;;;;;;;;5341887;26;19999;-69
2024/04/14 11:18:52;;;;;;;12.68;2.45;;;;;;;;;;5367856;26;19996;-69
2024/04/14 11:21:18;;;;;;;15.10;2.65;;;;;;;;;;5383178;26;19992;-69
2024/04/14 11:23:47;;;;;;;9.52;2.42;;;;;;;;;;5363867;26;19997;-69
2024/04/14 11:26:12;;;;;;;10.45;2.42;;;;;;;;;;5366264;26;19996;-68
2024/04/14 11:28:39;;;;;;;9.85;3.08;;;;;;;;;;5382607;26;20012;-68
2024/04/14 11:31:04;;;;;;;9.32;2.13;;;;;;;;;;5381497;26;20004;-68
2024/04/14 11:33:30;;;;;;;9.55;2.38;;;;;;;;;;5383282;26;19992;-68
2024/04/14 11:35:59;;;;;;;7.57;2.05;;;;;;;;;;5381276;26;20381;-68
2024/04/14 11:38:28;;;;;;;9.43;1.95;;;;;;;;;;5361552;26;20028;-68
2024/04/14 11:40:54;;;;;;;9.75;2.60;;;;;;;;;;5345827;26;19997;-68
2024/04/14 11:43:19;;;;;;;12.02;2.22;;;;;;;;;;5317245;26;20465;-68
2024/04/14 11:45:51;;;;;;;22.98;2.45;;;;;;;;;;5317351;26;20005;-68
2024/04/14 11:48:17;;;;;;;;;;;;;;;;;;5348440;26;19993;-68
2024/04/14 11:50:42;;;;;;;5.32;1.90;;;;;;;;;;5347032;26;19926;-68
2024/04/14 11:53:08;;;;;;;8.70;2.78;;;;;;;;;;5346261;26;20004;-68
2024/04/14 11:55:33;;;;;;;9.00;2.95;;;;;;;;;;5347772;26;20528;-68
2024/04/14 11:58:00;;;;;;;10.95;2.33;;;;;;;;;;5347739;26;19996;-68
2024/04/14 12:00:25;;;;;;;6.70;2.08;;;;;;;;;;5346109;26;19997;-68
2024/04/14 12:02:50;;;;;;;9.60;2.63;;;;;;;;;;5349966;26;19993;-69
2024/04/14 12:05:18;;;;;;;9.15;2.15;;;;;;;;;;5364074;26;20072;-67
2024/04/14 12:07:43;;;;;;;16.00;2.55;;;;;;;;;;5362719;26;19997;-68
2024/04/14 12:10:09;;;;;;;9.63;4.13;;;;;;;;;;5364410;26;20001;-68
2024/04/14 12:12:34;;;;;;;8.32;2.42;;;;;;;;;;5366379;26;19996;-66
2024/04/14 12:14:59;;;;;;;8.00;1.83;;;;;;;;;;5359866;26;20465;-68
2024/04/14 12:17:25;;;;;;;26.75;7.50;;;;;;;;;;5343006;26;20340;-68
2024/04/14 12:19:50;;;;;;;11.60;3.03;;;;;;;;;;5360588;26;20001;-67
2024/04/14 12:22:15;;;;;;;7.57;3.08;;;;;;;;;;5364594;26;19996;-67
2024/04/14 12:24:40;;;;;;;4.82;1.55;;;;;;;;;;5364635;26;20045;-68
2024/04/14 12:27:06;;;;;;;6.93;1.80;;;;;;;;;;5359822;26;20337;-68
2024/04/14 12:29:31;;;;;;;10.30;2.03;;;;;;;;;;5361161;26;20037;-67
2024/04/14 12:31:57;;;;;;;10.65;1.77;;;;;;;;;;5361115;26;20004;-68
2024/04/14 12:34:22;;;;;;;8.68;2.47;;;;;;;;;;5360449;26;20045;-67
2024/04/14 12:36:47;;;;;;;5.88;2.08;;;;;;;;;;5359217;26;19997;-67
2024/04/14 12:39:12;;;;;;;8.52;1.70;;;;;;;;;;5363510;26;20519;-68
2024/04/14 12:41:38;;;;;;;12.65;2.28;;;;;;;;;;5364069;26;19997;-67
2024/04/14 12:44:03;;;;;;;4.75;1.83;;;;;;;;;;5359280;26;20005;-68
2024/04/14 12:46:28;;;;;;;8.90;2.00;;;;;;;;;;5361450;26;20001;-68
2024/04/14 12:48:54;;;;;;;6.25;1.85;;;;;;;;;;5365546;26;20007;-68
2024/04/14 12:51:19;;;;;;;7.55;2.33;;;;;;;;;;5365192;26;19996;-67
2024/04/14 12:53:44;;;;;;;13.70;2.50;;;;;;;;;;5359305;26;20485;-67
2024/04/14 12:56:10;;;;;;;7.40;3.58;;;;;;;;;;5370517;26;20002;-67
2024/04/14 12:58:35;;;;;;;10.10;2.75;;;;;;;;;;5389872;26;20028;-68
2024/04/14 13:01:01;;;;;;;9.80;2.78;;;;;;;;;;5370600;26;20036;-67
2024/04/14 13:03:29;;;;;;;12.93;2.25;;;;;;;;;;5366597;26;20334;-68
2024/04/14 13:05:54;;;;;;;7.60;2.42;;;;;;;;;;5356203;26;20067;-68
2024/04/14 13:08:20;;;;;;;21.50;3.17;;;;;;;;;;5366623;26;20035;-67
2024/04/14 13:10:45;;;;;;;5.45;2.35;;;;;;;;;;5367213;26;20455;-68
2024/04/14 13:13:10;;;;;;;17.23;2.88;;;;;;;;;;5376128;26;20007;-68
2024/04/14 13:15:35;;;;;;;8.05;2.35;;;;;;;;;;5360476;26;20005;-67
2024/04/14 13:18:01;;;;;;;15.65;2.42;;;;;;;;;;5367886;26;20009;-67
2024/04/14 13:20:26;;;;;;;6.55;2.13;;;;;;;;;;5365111;26;20004;-68
2024/04/14 13:22:51;;;;;;;9.20;2.42;;;;;;;;;;5378856;26;20008;-68
2024/04/14 13:25:17;;;;;;;5.47;2.53;;;;;;;;;;5378595;26;19997;-68
2024/04/14 13:27:42;;;;;;;10.43;2.75;;;;;;;;;;5364121;26;20005;-68
2024/04/14 13:30:07;;;;;;;12.32;2.15;;;;;;;;;;5367980;26;20361;-67
2024/04/14 13:32:33;;;;;;;8.90;2.65;;;;;;;;;;5375680;26;20468;-67
2024/04/14 13:34:58;;;;;;;10.57;2.40;;;;;;;;;;5372911;26;20004;-67
2024/04/14 13:37:23;;;;;;;10.75;1.80;;;;;;;;;;5382580;26;20003;-68
2024/04/14 13:39:49;;;;;;;10.23;2.30;;;;;;;;;;5384675;26;19992;-69
2024/04/14 13:42:14;;;;;;;8.25;1.90;;;;;;;;;;5384391;26;20494;-68
2024/04/14 13:44:40;;;;;;;11.32;2.13;;;;;;;;;;5377464;26;20004;-68
2024/04/14 13:47:05;;;;;;;12.75;2.00;;;;;;;;;;5381915;26;20007;-68
2024/04/14 13:49:31;;;;;;;7.88;1.63;;;;;;;;;;5406079;26;20136;-68
2024/04/14 13:51:57;;;;;;;10.25;2.25;;;;;;;;;;5384152;26;19992;-68
2024/04/14 13:54:22;;;;;;;10.25;2.72;;;;;;;;;;5383896;26;20008;-68
2024/04/14 13:56:47;;;;;;;7.57;1.75;;;;;;;;;;5412382;26;20043;-68
2024/04/14 13:59:13;;;;;;;7.05;2.63;;;;;;;;;;5381748;26;20007;-68
2024/04/14 14:01:38;;;;;;;8.63;2.13;;;;;;;;;;5384162;26;19996;-68
2024/04/14 14:04:03;;;;;;;4.80;2.03;;;;;;;;;;5384257;26;19996;-68
2024/04/14 14:06:29;;;;;;;7.82;2.03;;;;;;;;;;5383493;26;19997;-67
2024/04/14 14:08:54;;;;;;;6.97;2.78;;;;;;;;;;5384065;26;20004;-68
2024/04/14 14:11:19;;;;;;;8.80;3.05;;;;;;;;;;5384307;26;20329;-68
2024/04/14 14:13:45;;;;;;;14.20;2.80;;;;;;;;;;5384401;26;19997;-68
2024/04/14 14:16:11;;;;;;;11.35;3.63;;;;;;;;;;5382350;26;19996;-68
2024/04/14 14:18:36;;;;;;;12.13;4.32;;;;;;;;;;5383889;26;20007;-68
2024/04/14 14:21:01;;;;;;;7.82;3.45;;;;;;;;;;5366319;26;20012;-68
2024/04/14 14:23:27;;;;;;;20.17;3.95;;;;;;;;;;5349290;26;20000;-68
2024/04/14 14:25:52;;;;;;;9.57;3.30;;;;;;;;;;5360892;26;20007;-68